sensor_id;sensor_type;location;lat;lon;timestamp;temperature;humidity
69006;SHT31;56061;51.748;19.620;2023-03-01T00:01:22;-4.46;80.59
69006;SHT31;56061;51.748;19.620;2023-03-01T00:03:51;-4.47;80.43
69006;SHT31;56061;51.748;19.620;2023-03-01T00:06:19;-4.47;80.49
69006;SHT31;56061;51.748;19.620;2023-03-01T00:08:47;-4.49;80.41
69006;SHT31;56061;51.748;19.620;2023-03-01T00:11:18;-4.51;80.37
69006;SHT31;56061;51.748;19.620;2023-03-01T00:13:50;-4.53;80.36
69006;SHT31;56061;51.748;19.620;2023-03-01T00:16:21;-4.57;80.30
69006;SHT31;56061;51.748;19.620;2023-03-01T00:18:50;-4.62;80.22
69006;SHT31;56061;51.748;19.620;2023-03-01T00:21:17;-4.68;80.22
69006;SHT31;56061;51.748;19.620;2023-03-01T00:23:46;-4.75;80.30
69006;SHT31;56061;51.748;19.620;2023-03-01T00:26:15;-4.82;80.32
69006;SHT31;56061;51.748;19.620;2023-03-01T00:28:44;-4.88;80.24
69006;SHT31;56061;51.748;19.620;2023-03-01T00:31:14;-4.93;80.19
69006;SHT31;56061;51.748;19.620;2023-03-01T00:33:47;-4.99;80.31
69006;SHT31;56061;51.748;19.620;2023-03-01T00:36:14;-5.01;80.73
69006;SHT31;56061;51.748;19.620;2023-03-01T00:38:43;-5.01;80.87
69006;SHT31;56061;51.748;19.620;2023-03-01T00:41:13;-5.00;80.80
69006;SHT31;56061;51.748;19.620;2023-03-01T00:43:43;-4.99;80.69
69006;SHT31;56061;51.748;19.620;2023-03-01T00:46:14;-4.99;80.60
69006;SHT31;56061;51.748;19.620;2023-03-01T00:48:44;-4.99;80.58
69006;SHT31;56061;51.748;19.620;2023-03-01T00:51:12;-4.98;80.61
69006;SHT31;56061;51.748;19.620;2023-03-01T00:53:46;-4.96;80.63
69006;SHT31;56061;51.748;19.620;2023-03-01T00:56:16;-4.95;80.59
69006;SHT31;56061;51.748;19.620;2023-03-01T00:58:43;-4.97;80.45
69006;SHT31;56061;51.748;19.620;2023-03-01T01:01:11;-5.02;80.29
69006;SHT31;56061;51.748;19.620;2023-03-01T01:03:44;-5.08;80.26
69006;SHT31;56061;51.748;19.620;2023-03-01T01:06:30;-5.16;80.12
69006;SHT31;56061;51.748;19.620;2023-03-01T01:09:11;-5.24;80.17
69006;SHT31;56061;51.748;19.620;2023-03-01T01:11:45;-5.27;80.28
69006;SHT31;56061;51.748;19.620;2023-03-01T01:14:15;-5.28;80.70
69006;SHT31;56061;51.748;19.620;2023-03-01T01:16:42;-5.29;80.68
69006;SHT31;56061;51.748;19.620;2023-03-01T01:19:10;-5.29;80.95
69006;SHT31;56061;51.748;19.620;2023-03-01T01:21:37;-5.29;81.26
69006;SHT31;56061;51.748;19.620;2023-03-01T01:24:04;-5.30;81.06
69006;SHT31;56061;51.748;19.620;2023-03-01T01:26:32;-5.30;80.93
69006;SHT31;56061;51.748;19.620;2023-03-01T01:29:01;-5.29;80.83
69006;SHT31;56061;51.748;19.620;2023-03-01T01:31:31;-5.29;80.64
69006;SHT31;56061;51.748;19.620;2023-03-01T01:34:01;-5.29;80.55
69006;SHT31;56061;51.748;19.620;2023-03-01T01:36:30;-5.29;80.47
69006;SHT31;56061;51.748;19.620;2023-03-01T01:38:58;-5.28;80.40
69006;SHT31;56061;51.748;19.620;2023-03-01T01:41:26;-5.26;80.42
69006;SHT31;56061;51.748;19.620;2023-03-01T01:46:48;-5.17;80.55
69006;SHT31;56061;51.748;19.620;2023-03-01T01:57:34;-4.95;80.27
69006;SHT31;56061;51.748;19.620;2023-03-01T02:00:08;-4.93;80.10
69006;SHT31;56061;51.748;19.620;2023-03-01T02:02:40;-4.89;80.27
69006;SHT31;56061;51.748;19.620;2023-03-01T02:05:11;-4.82;80.35
69006;SHT31;56061;51.748;19.620;2023-03-01T02:07:48;-4.74;80.29
69006;SHT31;56061;51.748;19.620;2023-03-01T02:13:10;-4.55;80.17
69006;SHT31;56061;51.748;19.620;2023-03-01T02:15:39;-4.49;80.34
69006;SHT31;56061;51.748;19.620;2023-03-01T02:18:10;-4.40;80.45
69006;SHT31;56061;51.748;19.620;2023-03-01T02:20:44;-4.34;80.51
69006;SHT31;56061;51.748;19.620;2023-03-01T02:23:32;-4.27;80.58
69006;SHT31;56061;51.748;19.620;2023-03-01T02:28:43;-4.14;80.41
69006;SHT31;56061;51.748;19.620;2023-03-01T02:31:13;-4.10;80.35
69006;SHT31;56061;51.748;19.620;2023-03-01T02:34:02;-4.04;80.48
69006;SHT31;56061;51.748;19.620;2023-03-01T02:36:31;-4.00;80.47
69006;SHT31;56061;51.748;19.620;2023-03-01T02:39:07;-3.96;80.43
69006;SHT31;56061;51.748;19.620;2023-03-01T02:41:41;-3.92;80.38
69006;SHT31;56061;51.748;19.620;2023-03-01T02:44:13;-3.90;80.29
69006;SHT31;56061;51.748;19.620;2023-03-01T02:46:47;-3.90;80.01
69006;SHT31;56061;51.748;19.620;2023-03-01T02:49:27;-3.91;79.81
69006;SHT31;56061;51.748;19.620;2023-03-01T02:57:42;-4.08;79.03
69006;SHT31;56061;51.748;19.620;2023-03-01T03:00:17;-4.15;78.86
69006;SHT31;56061;51.748;19.620;2023-03-01T03:02:51;-4.21;78.78
69006;SHT31;56061;51.748;19.620;2023-03-01T03:05:20;-4.23;78.79
69006;SHT31;56061;51.748;19.620;2023-03-01T03:07:50;-4.22;78.85
69006;SHT31;56061;51.748;19.620;2023-03-01T03:10:19;-4.20;78.96
69006;SHT31;56061;51.748;19.620;2023-03-01T03:12:54;-4.16;79.30
69006;SHT31;56061;51.748;19.620;2023-03-01T03:15:24;-4.09;79.29
69006;SHT31;56061;51.748;19.620;2023-03-01T03:17:53;-4.07;79.00
69006;SHT31;56061;51.748;19.620;2023-03-01T03:20:21;-4.07;78.94
69006;SHT31;56061;51.748;19.620;2023-03-01T03:22:51;-4.07;78.97
69006;SHT31;56061;51.748;19.620;2023-03-01T03:25:20;-4.09;78.79
69006;SHT31;56061;51.748;19.620;2023-03-01T03:27:49;-4.13;78.52
69006;SHT31;56061;51.748;19.620;2023-03-01T03:30:24;-4.18;78.43
69006;SHT31;56061;51.748;19.620;2023-03-01T03:32:54;-4.24;78.33
69006;SHT31;56061;51.748;19.620;2023-03-01T03:35:24;-4.28;78.29
69006;SHT31;56061;51.748;19.620;2023-03-01T03:37:56;-4.34;78.29
69006;SHT31;56061;51.748;19.620;2023-03-01T03:40:35;-4.39;78.28
69006;SHT31;56061;51.748;19.620;2023-03-01T03:43:04;-4.44;78.35
69006;SHT31;56061;51.748;19.620;2023-03-01T03:45:36;-4.48;78.38
69006;SHT31;56061;51.748;19.620;2023-03-01T03:48:04;-4.53;78.33
69006;SHT31;56061;51.748;19.620;2023-03-01T03:50:34;-4.58;78.28
69006;SHT31;56061;51.748;19.620;2023-03-01T03:53:02;-4.63;78.27
69006;SHT31;56061;51.748;19.620;2023-03-01T03:55:31;-4.67;78.33
69006;SHT31;56061;51.748;19.620;2023-03-01T03:58:02;-4.68;78.47
69006;SHT31;56061;51.748;19.620;2023-03-01T04:00:33;-4.64;78.75
69006;SHT31;56061;51.748;19.620;2023-03-01T04:03:02;-4.62;78.75
69006;SHT31;56061;51.748;19.620;2023-03-01T04:05:30;-4.62;78.70
69006;SHT31;56061;51.748;19.620;2023-03-01T04:07:57;-4.61;78.79
69006;SHT31;56061;51.748;19.620;2023-03-01T04:10:40;-4.56;79.21
69006;SHT31;56061;51.748;19.620;2023-03-01T04:13:13;-4.52;79.40
69006;SHT31;56061;51.748;19.620;2023-03-01T04:15:49;-4.48;79.54
69006;SHT31;56061;51.748;19.620;2023-03-01T04:18:17;-4.44;79.51
69006;SHT31;56061;51.748;19.620;2023-03-01T04:20:46;-4.41;79.52
69006;SHT31;56061;51.748;19.620;2023-03-01T04:23:14;-4.39;79.62
69006;SHT31;56061;51.748;19.620;2023-03-01T04:25:50;-4.41;79.70
69006;SHT31;56061;51.748;19.620;2023-03-01T04:28:29;-4.43;79.80
69006;SHT31;56061;51.748;19.620;2023-03-01T04:31:02;-4.43;79.80
69006;SHT31;56061;51.748;19.620;2023-03-01T04:33:43;-4.44;79.70
69006;SHT31;56061;51.748;19.620;2023-03-01T04:36:24;-4.44;79.77
69006;SHT31;56061;51.748;19.620;2023-03-01T04:38:53;-4.41;79.84
69006;SHT31;56061;51.748;19.620;2023-03-01T04:41:22;-4.40;79.80
69006;SHT31;56061;51.748;19.620;2023-03-01T04:43:50;-4.41;79.74
69006;SHT31;56061;51.748;19.620;2023-03-01T04:46:17;-4.45;79.76
69006;SHT31;56061;51.748;19.620;2023-03-01T04:48:46;-4.49;79.80
69006;SHT31;56061;51.748;19.620;2023-03-01T04:51:14;-4.51;79.80
69006;SHT31;56061;51.748;19.620;2023-03-01T04:53:42;-4.54;79.79
69006;SHT31;56061;51.748;19.620;2023-03-01T04:56:10;-4.57;79.79
69006;SHT31;56061;51.748;19.620;2023-03-01T04:58:37;-4.57;79.80
69006;SHT31;56061;51.748;19.620;2023-03-01T05:01:08;-4.58;79.88
69006;SHT31;56061;51.748;19.620;2023-03-01T05:03:45;-4.60;79.91
69006;SHT31;56061;51.748;19.620;2023-03-01T05:06:14;-4.62;80.05
69006;SHT31;56061;51.748;19.620;2023-03-01T05:08:42;-4.62;80.19
69006;SHT31;56061;51.748;19.620;2023-03-01T05:11:10;-4.60;80.12
69006;SHT31;56061;51.748;19.620;2023-03-01T05:13:38;-4.61;79.49
69006;SHT31;56061;51.748;19.620;2023-03-01T05:16:06;-4.64;79.33
69006;SHT31;56061;51.748;19.620;2023-03-01T05:18:38;-4.62;79.51
69006;SHT31;56061;51.748;19.620;2023-03-01T05:21:06;-4.62;79.65
69006;SHT31;56061;51.748;19.620;2023-03-01T05:23:36;-4.61;79.95
69006;SHT31;56061;51.748;19.620;2023-03-01T05:26:04;-4.61;80.14
69006;SHT31;56061;51.748;19.620;2023-03-01T05:28:36;-4.59;80.20
69006;SHT31;56061;51.748;19.620;2023-03-01T05:31:04;-4.56;80.27
69006;SHT31;56061;51.748;19.620;2023-03-01T05:33:36;-4.53;80.32
69006;SHT31;56061;51.748;19.620;2023-03-01T05:36:05;-4.47;80.37
69006;SHT31;56061;51.748;19.620;2023-03-01T05:38:35;-4.45;80.39
69006;SHT31;56061;51.748;19.620;2023-03-01T05:41:02;-4.45;80.51
69006;SHT31;56061;51.748;19.620;2023-03-01T05:43:32;-4.45;80.65
69006;SHT31;56061;51.748;19.620;2023-03-01T05:46:01;-4.43;80.73
69006;SHT31;56061;51.748;19.620;2023-03-01T05:48:28;-4.41;80.77
69006;SHT31;56061;51.748;19.620;2023-03-01T05:50:54;-4.35;80.82
69006;SHT31;56061;51.748;19.620;2023-03-01T05:53:26;-4.28;80.74
69006;SHT31;56061;51.748;19.620;2023-03-01T05:55:52;-4.23;80.74
69006;SHT31;56061;51.748;19.620;2023-03-01T05:58:19;-4.17;80.77
69006;SHT31;56061;51.748;19.620;2023-03-01T06:00:47;-4.12;80.78
69006;SHT31;56061;51.748;19.620;2023-03-01T06:03:15;-4.07;80.80
69006;SHT31;56061;51.748;19.620;2023-03-01T06:05:43;-4.02;80.82
69006;SHT31;56061;51.748;19.620;2023-03-01T06:08:11;-3.96;80.81
69006;SHT31;56061;51.748;19.620;2023-03-01T06:10:39;-3.91;80.89
69006;SHT31;56061;51.748;19.620;2023-03-01T06:13:05;-3.84;80.90
69006;SHT31;56061;51.748;19.620;2023-03-01T06:15:32;-3.75;80.91
69006;SHT31;56061;51.748;19.620;2023-03-01T06:17:58;-3.65;80.81
69006;SHT31;56061;51.748;19.620;2023-03-01T06:20:26;-3.56;80.73
69006;SHT31;56061;51.748;19.620;2023-03-01T06:22:55;-3.47;80.70
69006;SHT31;56061;51.748;19.620;2023-03-01T06:25:23;-3.39;80.65
69006;SHT31;56061;51.748;19.620;2023-03-01T06:27:51;-3.32;80.55
69006;SHT31;56061;51.748;19.620;2023-03-01T06:30:21;-3.27;80.58
69006;SHT31;56061;51.748;19.620;2023-03-01T06:32:51;-3.22;80.60
69006;SHT31;56061;51.748;19.620;2023-03-01T06:35:18;-3.16;80.56
69006;SHT31;56061;51.748;19.620;2023-03-01T06:37:46;-3.11;80.59
69006;SHT31;56061;51.748;19.620;2023-03-01T06:40:14;-3.05;80.60
69006;SHT31;56061;51.748;19.620;2023-03-01T06:42:42;-2.99;80.67
69006;SHT31;56061;51.748;19.620;2023-03-01T06:45:14;-2.94;80.85
69006;SHT31;56061;51.748;19.620;2023-03-01T06:47:41;-2.88;80.92
69006;SHT31;56061;51.748;19.620;2023-03-01T06:50:08;-2.82;80.84
69006;SHT31;56061;51.748;19.620;2023-03-01T06:52:36;-2.76;80.86
69006;SHT31;56061;51.748;19.620;2023-03-01T06:55:03;-2.72;80.89
69006;SHT31;56061;51.748;19.620;2023-03-01T06:57:31;-2.65;80.95
69006;SHT31;56061;51.748;19.620;2023-03-01T06:59:57;-2.58;80.93
69006;SHT31;56061;51.748;19.620;2023-03-01T07:02:24;-2.50;80.90
69006;SHT31;56061;51.748;19.620;2023-03-01T07:04:51;-2.43;80.90
69006;SHT31;56061;51.748;19.620;2023-03-01T07:07:18;-2.34;80.90
69006;SHT31;56061;51.748;19.620;2023-03-01T07:09:45;-2.26;80.83
69006;SHT31;56061;51.748;19.620;2023-03-01T07:12:12;-2.16;80.76
69006;SHT31;56061;51.748;19.620;2023-03-01T07:14:39;-2.05;80.69
69006;SHT31;56061;51.748;19.620;2023-03-01T07:17:06;-1.92;80.62
69006;SHT31;56061;51.748;19.620;2023-03-01T07:19:33;-1.80;80.53
69006;SHT31;56061;51.748;19.620;2023-03-01T07:21:59;-1.67;80.44
69006;SHT31;56061;51.748;19.620;2023-03-01T07:24:26;-1.56;80.28
69006;SHT31;56061;51.748;19.620;2023-03-01T07:26:52;-1.46;80.18
69006;SHT31;56061;51.748;19.620;2023-03-01T07:29:19;-1.38;80.03
69006;SHT31;56061;51.748;19.620;2023-03-01T07:31:46;-1.27;80.00
69006;SHT31;56061;51.748;19.620;2023-03-01T07:34:12;-1.17;79.88
69006;SHT31;56061;51.748;19.620;2023-03-01T07:36:39;-1.10;79.80
69006;SHT31;56061;51.748;19.620;2023-03-01T07:39:09;-1.01;79.73
69006;SHT31;56061;51.748;19.620;2023-03-01T07:41:37;-0.93;79.65
69006;SHT31;56061;51.748;19.620;2023-03-01T07:44:03;-0.85;79.40
69006;SHT31;56061;51.748;19.620;2023-03-01T07:46:30;-0.76;79.08
69006;SHT31;56061;51.748;19.620;2023-03-01T07:48:57;-0.68;78.94
69006;SHT31;56061;51.748;19.620;2023-03-01T07:51:24;-0.59;78.91
69006;SHT31;56061;51.748;19.620;2023-03-01T07:53:50;-0.50;78.62
69006;SHT31;56061;51.748;19.620;2023-03-01T07:56:17;-0.43;78.35
69006;SHT31;56061;51.748;19.620;2023-03-01T07:58:45;-0.33;78.27
69006;SHT31;56061;51.748;19.620;2023-03-01T08:01:13;-0.20;78.28
69006;SHT31;56061;51.748;19.620;2023-03-01T08:03:42;-0.08;77.99
69006;SHT31;56061;51.748;19.620;2023-03-01T08:06:10;0.04;77.62
69006;SHT31;56061;51.748;19.620;2023-03-01T08:08:40;0.16;77.50
69006;SHT31;56061;51.748;19.620;2023-03-01T08:11:07;0.26;77.41
69006;SHT31;56061;51.748;19.620;2023-03-01T08:13:40;0.39;77.03
69006;SHT31;56061;51.748;19.620;2023-03-01T08:16:10;0.49;76.47
69006;SHT31;56061;51.748;19.620;2023-03-01T08:18:39;0.58;76.25
69006;SHT31;56061;51.748;19.620;2023-03-01T08:21:06;0.65;76.07
69006;SHT31;56061;51.748;19.620;2023-03-01T08:23:42;0.72;76.03
69006;SHT31;56061;51.748;19.620;2023-03-01T08:26:13;0.78;75.88
69006;SHT31;56061;51.748;19.620;2023-03-01T08:28:47;0.83;75.80
69006;SHT31;56061;51.748;19.620;2023-03-01T08:33:46;0.96;75.32
69006;SHT31;56061;51.748;19.620;2023-03-01T08:36:17;1.02;74.88
69006;SHT31;56061;51.748;19.620;2023-03-01T08:38:44;1.08;74.39
69006;SHT31;56061;51.748;19.620;2023-03-01T08:41:11;1.15;74.28
69006;SHT31;56061;51.748;19.620;2023-03-01T08:43:38;1.26;74.17
69006;SHT31;56061;51.748;19.620;2023-03-01T08:46:04;1.38;73.97
69006;SHT31;56061;51.748;19.620;2023-03-01T08:48:31;1.47;73.67
69006;SHT31;56061;51.748;19.620;2023-03-01T08:51:06;1.56;73.47
69006;SHT31;56061;51.748;19.620;2023-03-01T08:53:41;1.62;73.40
69006;SHT31;56061;51.748;19.620;2023-03-01T08:56:08;1.70;73.05
69006;SHT31;56061;51.748;19.620;2023-03-01T08:58:35;1.78;72.85
69006;SHT31;56061;51.748;19.620;2023-03-01T09:01:09;1.83;72.35
69006;SHT31;56061;51.748;19.620;2023-03-01T09:03:38;1.90;72.31
69006;SHT31;56061;51.748;19.620;2023-03-01T09:06:05;1.97;72.03
69006;SHT31;56061;51.748;19.620;2023-03-01T09:08:34;2.02;71.60
69006;SHT31;56061;51.748;19.620;2023-03-01T09:11:03;2.09;71.41
69006;SHT31;56061;51.748;19.620;2023-03-01T09:13:33;2.16;71.01
69006;SHT31;56061;51.748;19.620;2023-03-01T09:16:00;2.23;70.91
69006;SHT31;56061;51.748;19.620;2023-03-01T09:18:30;2.29;70.77
69006;SHT31;56061;51.748;19.620;2023-03-01T09:21:04;2.37;70.07
69006;SHT31;56061;51.748;19.620;2023-03-01T09:23:34;2.44;69.81
69006;SHT31;56061;51.748;19.620;2023-03-01T09:26:29;2.51;69.45
69006;SHT31;56061;51.748;19.620;2023-03-01T09:28:55;2.59;68.28
69006;SHT31;56061;51.748;19.620;2023-03-01T09:31:23;2.72;69.11
69006;SHT31;56061;51.748;19.620;2023-03-01T09:33:51;2.83;68.92
69006;SHT31;56061;51.748;19.620;2023-03-01T09:36:21;2.92;68.45
69006;SHT31;56061;51.748;19.620;2023-03-01T09:38:51;3.00;68.40
69006;SHT31;56061;51.748;19.620;2023-03-01T09:47:16;3.29;66.68
69006;SHT31;56061;51.748;19.620;2023-03-01T09:49:57;3.39;65.48
69006;SHT31;56061;51.748;19.620;2023-03-01T09:55:31;3.51;64.59
69006;SHT31;56061;51.748;19.620;2023-03-01T10:00:59;3.63;63.65
69006;SHT31;56061;51.748;19.620;2023-03-01T10:04:00;3.67;63.36
69006;SHT31;56061;51.748;19.620;2023-03-01T10:07:10;3.73;62.66
69006;SHT31;56061;51.748;19.620;2023-03-01T10:09:51;3.76;62.51
69006;SHT31;56061;51.748;19.620;2023-03-01T10:12:19;3.81;62.57
69006;SHT31;56061;51.748;19.620;2023-03-01T10:14:57;3.87;63.05
69006;SHT31;56061;51.748;19.620;2023-03-01T10:20:10;3.93;61.35
69006;SHT31;56061;51.748;19.620;2023-03-01T10:22:47;3.98;61.65
69006;SHT31;56061;51.748;19.620;2023-03-01T10:25:22;4.00;61.32
69006;SHT31;56061;51.748;19.620;2023-03-01T10:28:39;4.07;60.69
69006;SHT31;56061;51.748;19.620;2023-03-01T10:31:27;4.15;60.14
69006;SHT31;56061;51.748;19.620;2023-03-01T10:34:11;4.25;60.00
69006;SHT31;56061;51.748;19.620;2023-03-01T10:39:55;4.36;58.75
69006;SHT31;56061;51.748;19.620;2023-03-01T10:42:31;4.43;58.67
69006;SHT31;56061;51.748;19.620;2023-03-01T10:48:13;4.53;57.73
69006;SHT31;56061;51.748;19.620;2023-03-01T10:50:45;4.54;57.44
69006;SHT31;56061;51.748;19.620;2023-03-01T10:53:22;4.61;57.54
69006;SHT31;56061;51.748;19.620;2023-03-01T10:55:59;4.68;56.96
69006;SHT31;56061;51.748;19.620;2023-03-01T10:58:30;4.72;56.03
69006;SHT31;56061;51.748;19.620;2023-03-01T11:01:00;4.80;55.92
69006;SHT31;56061;51.748;19.620;2023-03-01T11:03:36;4.86;56.81
69006;SHT31;56061;51.748;19.620;2023-03-01T11:08:44;5.00;56.10
69006;SHT31;56061;51.748;19.620;2023-03-01T11:11:14;5.03;55.16
69006;SHT31;56061;51.748;19.620;2023-03-01T11:14:03;5.11;56.25
69006;SHT31;56061;51.748;19.620;2023-03-01T11:19:41;5.24;54.91
69006;SHT31;56061;51.748;19.620;2023-03-01T11:22:19;5.27;54.70
69006;SHT31;56061;51.748;19.620;2023-03-01T11:24:51;5.29;55.05
69006;SHT31;56061;51.748;19.620;2023-03-01T11:27:36;5.28;54.51
69006;SHT31;56061;51.748;19.620;2023-03-01T11:30:22;5.28;55.25
69006;SHT31;56061;51.748;19.620;2023-03-01T11:32:56;5.33;55.67
69006;SHT31;56061;51.748;19.620;2023-03-01T11:35:47;5.35;55.22
69006;SHT31;56061;51.748;19.620;2023-03-01T11:38:26;5.35;54.88
69006;SHT31;56061;51.748;19.620;2023-03-01T11:41:00;5.34;54.21
69006;SHT31;56061;51.748;19.620;2023-03-01T11:44:21;5.38;54.39
69006;SHT31;56061;51.748;19.620;2023-03-01T11:46:32;5.44;54.09
69006;SHT31;56061;51.748;19.620;2023-03-01T11:52:36;5.51;53.77
69006;SHT31;56061;51.748;19.620;2023-03-01T12:02:25;5.63;53.32
69006;SHT31;56061;51.748;19.620;2023-03-01T12:08:17;5.69;52.57
69006;SHT31;56061;51.748;19.620;2023-03-01T12:11:04;5.73;52.76
69006;SHT31;56061;51.748;19.620;2023-03-01T12:22:17;5.89;52.04
69006;SHT31;56061;51.748;19.620;2023-03-01T12:33:54;6.00;52.11
69006;SHT31;56061;51.748;19.620;2023-03-01T12:43:01;6.18;51.63
69006;SHT31;56061;51.748;19.620;2023-03-01T12:46:30;6.22;52.27
69006;SHT31;56061;51.748;19.620;2023-03-01T12:49:20;6.25;51.36
69006;SHT31;56061;51.748;19.620;2023-03-01T12:51:56;6.26;51.60
69006;SHT31;56061;51.748;19.620;2023-03-01T12:54:36;6.30;51.77
69006;SHT31;56061;51.748;19.620;2023-03-01T12:57:08;6.32;51.84
69006;SHT31;56061;51.748;19.620;2023-03-01T13:02:22;6.39;51.02
69006;SHT31;56061;51.748;19.620;2023-03-01T13:05:01;6.41;50.40
69006;SHT31;56061;51.748;19.620;2023-03-01T13:08:06;6.42;49.17
69006;SHT31;56061;51.748;19.620;2023-03-01T13:10:47;6.39;49.18
69006;SHT31;56061;51.748;19.620;2023-03-01T13:13:25;6.42;49.49
69006;SHT31;56061;51.748;19.620;2023-03-01T13:15:53;6.46;49.08
69006;SHT31;56061;51.748;19.620;2023-03-01T13:20:50;6.55;48.70
69006;SHT31;56061;51.748;19.620;2023-03-01T13:26:05;6.64;49.12
69006;SHT31;56061;51.748;19.620;2023-03-01T13:31:11;6.77;48.43
69006;SHT31;56061;51.748;19.620;2023-03-01T13:46:56;6.89;47.79
69006;SHT31;56061;51.748;19.620;2023-03-01T13:49:25;6.90;47.94
69006;SHT31;56061;51.748;19.620;2023-03-01T13:52:21;6.93;47.34
69006;SHT31;56061;51.748;19.620;2023-03-01T13:55:16;6.95;47.14
69006;SHT31;56061;51.748;19.620;2023-03-01T13:57:53;6.92;46.51
69006;SHT31;56061;51.748;19.620;2023-03-01T14:00:29;6.90;47.08
69006;SHT31;56061;51.748;19.620;2023-03-01T14:03:02;6.94;47.43
69006;SHT31;56061;51.748;19.620;2023-03-01T14:05:39;7.00;47.35
69006;SHT31;56061;51.748;19.620;2023-03-01T14:08:21;7.04;47.05
69006;SHT31;56061;51.748;19.620;2023-03-01T14:10:55;7.04;45.96
69006;SHT31;56061;51.748;19.620;2023-03-01T14:14:04;7.05;46.73
69006;SHT31;56061;51.748;19.620;2023-03-01T14:22:52;7.08;47.06
69006;SHT31;56061;51.748;19.620;2023-03-01T14:25:30;7.07;47.51
69006;SHT31;56061;51.748;19.620;2023-03-01T14:30:55;7.06;48.32
69006;SHT31;56061;51.748;19.620;2023-03-01T14:33:26;7.03;48.33
69006;SHT31;56061;51.748;19.620;2023-03-01T14:38:42;6.95;49.62
69006;SHT31;56061;51.748;19.620;2023-03-01T14:41:15;6.94;49.32
69006;SHT31;56061;51.748;19.620;2023-03-01T14:43:53;6.92;49.93
69006;SHT31;56061;51.748;19.620;2023-03-01T14:46:31;6.95;50.43
69006;SHT31;56061;51.748;19.620;2023-03-01T14:49:04;7.01;50.74
69006;SHT31;56061;51.748;19.620;2023-03-01T14:51:39;7.03;50.85
69006;SHT31;56061;51.748;19.620;2023-03-01T14:54:25;7.04;50.93
69006;SHT31;56061;51.748;19.620;2023-03-01T14:57:31;7.06;50.77
69006;SHT31;56061;51.748;19.620;2023-03-01T14:59:58;7.05;50.94
69006;SHT31;56061;51.748;19.620;2023-03-01T15:02:31;7.09;51.12
69006;SHT31;56061;51.748;19.620;2023-03-01T15:05:00;7.12;51.22
69006;SHT31;56061;51.748;19.620;2023-03-01T15:07:34;7.12;51.73
69006;SHT31;56061;51.748;19.620;2023-03-01T15:10:06;7.10;52.39
69006;SHT31;56061;51.748;19.620;2023-03-01T15:12:40;7.08;52.82
69006;SHT31;56061;51.748;19.620;2023-03-01T15:17:53;7.03;53.43
69006;SHT31;56061;51.748;19.620;2023-03-01T15:20:25;7.01;53.41
69006;SHT31;56061;51.748;19.620;2023-03-01T15:22:55;6.97;53.28
69006;SHT31;56061;51.748;19.620;2023-03-01T15:25:24;6.93;53.44
69006;SHT31;56061;51.748;19.620;2023-03-01T15:27:54;6.87;53.44
69006;SHT31;56061;51.748;19.620;2023-03-01T15:30:26;6.78;53.55
69006;SHT31;56061;51.748;19.620;2023-03-01T15:35:56;6.58;54.05
69006;SHT31;56061;51.748;19.620;2023-03-01T15:41:27;6.34;54.70
69006;SHT31;56061;51.748;19.620;2023-03-01T15:43:57;6.23;55.02
69006;SHT31;56061;51.748;19.620;2023-03-01T15:46:28;6.13;55.19
69006;SHT31;56061;51.748;19.620;2023-03-01T15:49:21;6.04;55.31
69006;SHT31;56061;51.748;19.620;2023-03-01T15:52:22;5.91;55.52
69006;SHT31;56061;51.748;19.620;2023-03-01T15:55:00;5.79;55.67
69006;SHT31;56061;51.748;19.620;2023-03-01T15:57:31;5.68;55.79
69006;SHT31;56061;51.748;19.620;2023-03-01T15:59:57;5.57;55.91
69006;SHT31;56061;51.748;19.620;2023-03-01T16:02:24;5.46;56.07
69006;SHT31;56061;51.748;19.620;2023-03-01T16:04:51;5.37;56.16
69006;SHT31;56061;51.748;19.620;2023-03-01T16:07:17;5.29;56.34
69006;SHT31;56061;51.748;19.620;2023-03-01T16:09:44;5.19;56.56
69006;SHT31;56061;51.748;19.620;2023-03-01T16:12:12;5.09;56.81
69006;SHT31;56061;51.748;19.620;2023-03-01T16:14:42;4.99;57.06
69006;SHT31;56061;51.748;19.620;2023-03-01T16:17:08;4.90;57.23
69006;SHT31;56061;51.748;19.620;2023-03-01T16:19:37;4.80;57.33
69006;SHT31;56061;51.748;19.620;2023-03-01T16:22:04;4.70;57.45
69006;SHT31;56061;51.748;19.620;2023-03-01T16:24:31;4.59;57.63
69006;SHT31;56061;51.748;19.620;2023-03-01T16:26:57;4.51;57.86
69006;SHT31;56061;51.748;19.620;2023-03-01T16:29:24;4.42;58.03
69006;SHT31;56061;51.748;19.620;2023-03-01T16:31:50;4.35;58.20
69006;SHT31;56061;51.748;19.620;2023-03-01T16:34:17;4.26;58.45
69006;SHT31;56061;51.748;19.620;2023-03-01T16:36:44;4.18;58.64
69006;SHT31;56061;51.748;19.620;2023-03-01T16:39:10;4.10;58.79
69006;SHT31;56061;51.748;19.620;2023-03-01T16:41:37;4.02;58.96
69006;SHT31;56061;51.748;19.620;2023-03-01T16:44:03;3.95;59.12
69006;SHT31;56061;51.748;19.620;2023-03-01T16:46:30;3.88;59.25
69006;SHT31;56061;51.748;19.620;2023-03-01T16:48:56;3.81;59.39
69006;SHT31;56061;51.748;19.620;2023-03-01T16:51:23;3.73;59.55
69006;SHT31;56061;51.748;19.620;2023-03-01T16:53:50;3.66;59.71
69006;SHT31;56061;51.748;19.620;2023-03-01T16:56:18;3.60;59.84
69006;SHT31;56061;51.748;19.620;2023-03-01T16:58:45;3.53;59.98
69006;SHT31;56061;51.748;19.620;2023-03-01T17:01:14;3.46;60.16
69006;SHT31;56061;51.748;19.620;2023-03-01T17:03:43;3.37;60.37
69006;SHT31;56061;51.748;19.620;2023-03-01T17:06:13;3.27;60.81
69006;SHT31;56061;51.748;19.620;2023-03-01T17:08:46;3.17;61.04
69006;SHT31;56061;51.748;19.620;2023-03-01T17:11:14;3.08;61.28
69006;SHT31;56061;51.748;19.620;2023-03-01T17:13:44;3.00;61.55
69006;SHT31;56061;51.748;19.620;2023-03-01T17:16:13;2.89;61.83
69006;SHT31;56061;51.748;19.620;2023-03-01T17:18:43;2.77;62.01
69006;SHT31;56061;51.748;19.620;2023-03-01T17:21:10;2.58;62.33
69006;SHT31;56061;51.748;19.620;2023-03-01T17:23:41;2.37;62.85
69006;SHT31;56061;51.748;19.620;2023-03-01T17:26:11;2.17;63.36
69006;SHT31;56061;51.748;19.620;2023-03-01T17:28:38;1.98;63.68
69006;SHT31;56061;51.748;19.620;2023-03-01T17:31:06;1.83;64.14
69006;SHT31;56061;51.748;19.620;2023-03-01T17:33:33;1.68;64.42
69006;SHT31;56061;51.748;19.620;2023-03-01T17:36:01;1.56;64.97
69006;SHT31;56061;51.748;19.620;2023-03-01T17:38:27;1.46;65.15
69006;SHT31;56061;51.748;19.620;2023-03-01T17:40:54;1.36;65.25
69006;SHT31;56061;51.748;19.620;2023-03-01T17:43:20;1.29;65.63
69006;SHT31;56061;51.748;19.620;2023-03-01T17:45:47;1.25;65.92
69006;SHT31;56061;51.748;19.620;2023-03-01T17:48:15;1.21;66.12
69006;SHT31;56061;51.748;19.620;2023-03-01T17:50:42;1.17;66.32
69006;SHT31;56061;51.748;19.620;2023-03-01T17:53:09;1.14;66.54
69006;SHT31;56061;51.748;19.620;2023-03-01T17:55:37;1.12;66.70
69006;SHT31;56061;51.748;19.620;2023-03-01T17:58:07;1.09;66.82
69006;SHT31;56061;51.748;19.620;2023-03-01T18:00:37;1.08;66.95
69006;SHT31;56061;51.748;19.620;2023-03-01T18:03:05;1.08;67.04
69006;SHT31;56061;51.748;19.620;2023-03-01T18:05:32;1.06;67.10